Time;durP1;ratioP1;P1;durP2;ratioP2;P2;SDS_P1;SDS_P2;PMS_P1;PMS_P2;Temp;Humidity;BMP_temperature;BMP_pressure;BME280_temperature;BME280_humidity;BME280_pressure;Samples;Min_cycle;Max_cycle;Signal;HPM_P1;HPM_P2
2022/06/11 04:30:25;;;;;;;;;5.00;5.00;;;;;18.69;68.92;101914.59;5028345;28;45487;-74
2022/06/11 04:32:50;;;;;;;;;6.25;6.25;;;;;18.68;69.02;101916.44;5022206;28;45390;-74
2022/06/11 04:35:15;;;;;;;;;5.00;5.00;;;;;18.66;69.16;101926.50;5015151;28;45304;-75
2022/06/11 04:37:41;;;;;;;;;8.25;6.75;;;;;18.64;69.19;101924.84;5015473;28;45380;-74
2022/06/11 04:40:07;;;;;;;;;6.00;6.00;;;;;18.61;69.86;101925.03;5015308;28;45603;-75
2022/06/11 04:42:34;;;;;;;;;5.00;5.00;;;;;18.64;69.48;101927.56;4997878;28;47437;-75
2022/06/11 04:45:01;;;;;;;;;8.50;6.75;;;;;18.59;70.03;101924.25;5014632;28;45329;-74
2022/06/11 04:47:28;;;;;;;;;5.50;4.50;;;;;18.61;69.73;101935.91;5015058;28;45489;-74
2022/06/11 04:49:56;;;;;;;;;5.75;5.75;;;;;18.60;70.07;101937.75;5015589;28;45270;-74
2022/06/11 04:52:22;;;;;;;;;5.25;5.25;;;;;18.63;70.20;101923.13;5013745;28;45484;-74
2022/06/11 04:54:48;;;;;;;;;6.00;6.00;;;;;18.68;69.98;101935.44;5014622;28;45537;-74
2022/06/11 04:57:13;;;;;;;;;6.00;6.00;;;;;18.60;70.33;101923.28;5014885;28;45487;-75
2022/06/11 04:59:39;;;;;;;;;7.25;5.50;;;;;18.59;70.48;101919.69;5014302;28;45349;-73
2022/06/11 05:02:05;;;;;;;;;6.25;6.25;;;;;18.60;70.59;101935.03;5014312;28;45357;-73
2022/06/11 05:04:31;;;;;;;;;8.75;8.50;;;;;18.61;70.42;101936.78;5015004;28;45329;-73
2022/06/11 05:06:56;;;;;;;;;6.00;6.00;;;;;18.57;70.19;101926.19;5015027;28;45500;-73
2022/06/11 05:09:24;;;;;;;;;8.75;8.50;;;;;18.55;70.57;101923.53;5014121;28;45391;-73
2022/06/11 05:11:51;;;;;;;;;4.75;4.75;;;;;18.59;70.48;101924.25;5014462;28;46218;-73
2022/06/11 05:14:17;;;;;;;;;5.25;5.25;;;;;18.71;70.11;101935.25;5014664;28;45474;-73
2022/06/11 05:16:45;;;;;;;;;4.75;4.25;;;;;18.77;70.23;101931.28;5014830;28;45436;-74
2022/06/11 05:19:18;;;;;;;;;6.00;5.00;;;;;18.81;70.14;101935.56;5015030;28;45243;-74
2022/06/11 05:21:44;;;;;;;;;5.50;5.50;;;;;18.86;69.93;101931.59;5014893;28;47177;-74
2022/06/11 05:24:10;;;;;;;;;5.00;5.00;;;;;18.96;69.90;101936.47;5014543;28;45471;-75
2022/06/11 05:26:48;;;;;;;;;5.25;5.25;;;;;18.99;69.48;101933.53;5016282;28;45251;-75
2022/06/11 05:29:22;;;;;;;;;7.25;6.50;;;;;19.01;69.23;101929.78;5017587;28;46782;-73
2022/06/11 05:31:47;;;;;;;;;6.50;6.00;;;;;19.06;69.22;101935.78;5029992;28;46368;-75
2022/06/11 05:34:14;;;;;;;;;6.25;6.25;;;;;19.09;69.41;101929.28;5013927;28;45290;-75
2022/06/11 05:36:40;;;;;;;;;5.25;5.25;;;;;19.06;69.04;101919.47;5014566;28;45367;-75
2022/06/11 05:39:05;;;;;;;;;7.00;7.00;;;;;19.13;68.99;101925.41;5014523;28;45605;-74
2022/06/11 05:41:31;;;;;;;;;6.25;6.25;;;;;19.15;69.18;101926.19;5014443;28;45573;-75
2022/06/11 05:43:56;;;;;;;;;6.75;6.75;;;;;19.00;69.11;101914.44;5014667;28;45303;-75
2022/06/11 05:46:24;;;;;;;;;7.50;7.50;;;;;19.06;69.31;101933.06;5014671;28;45429;-75
2022/06/11 05:48:59;;;;;;;;;7.75;7.75;;;;;19.11;69.17;101930.94;5014473;28;45338;-75
2022/06/11 05:51:30;;;;;;;;;8.00;6.50;;;;;19.18;69.03;101924.16;5014134;28;45443;-74
2022/06/11 05:53:58;;;;;;;;;5.75;5.75;;;;;19.20;69.15;101924.94;5014237;28;45408;-74
2022/06/11 05:56:24;;;;;;;;;8.25;7.25;;;;;19.22;68.97;101922.97;5012743;28;45408;-75
2022/06/11 05:58:53;;;;;;;;;7.50;6.75;;;;;19.34;68.60;101925.88;4993545;28;46209;-75
2022/06/11 06:01:22;;;;;;;;;9.75;8.50;;;;;19.32;68.83;101922.38;5013603;28;45375;-74
2022/06/11 06:03:48;;;;;;;;;8.00;7.25;;;;;19.40;68.45;101923.66;5013825;28;45356;-75
2022/06/11 06:06:14;;;;;;;;;9.50;9.00;;;;;19.35;68.25;101909.47;5016407;28;45357;-74
2022/06/11 06:08:40;;;;;;;;;7.25;6.00;;;;;19.50;68.35;101927.56;5017119;28;45471;-73
2022/06/11 06:11:06;;;;;;;;;6.00;6.00;;;;;19.56;68.23;101939.91;5035409;28;46502;-73
2022/06/11 06:13:50;;;;;;;;;7.25;7.25;;;;;19.62;67.79;101928.63;5035624;28;45396;-75
2022/06/11 06:16:17;;;;;;;;;6.25;6.25;;;;;19.66;67.73;101924.72;5037277;28;45404;-75
2022/06/11 06:18:43;;;;;;;;;6.75;6.75;;;;;19.81;67.23;101928.31;5036328;28;45293;-75
2022/06/11 06:21:09;;;;;;;;;6.00;6.00;;;;;19.87;67.08;101925.16;5034637;28;45298;-75
2022/06/11 06:23:35;;;;;;;;;7.00;7.00;;;;;19.94;66.89;101926.50;5034089;28;45344;-76
2022/06/11 06:26:00;;;;;;;;;9.50;7.00;;;;;20.00;66.56;101917.91;5034723;28;45464;-81
2022/06/11 06:28:26;;;;;;;;;6.00;6.00;;;;;20.14;66.28;101927.91;5034099;28;45267;-76
2022/06/11 06:30:52;;;;;;;;;7.50;7.50;;;;;20.29;65.38;101940.47;5033854;28;46267;-77
2022/06/11 06:33:18;;;;;;;;;5.25;4.75;;;;;20.35;64.50;101932.81;5017351;28;45356;-77
2022/06/11 06:35:43;;;;;;;;;5.00;5.00;;;;;20.46;63.98;101934.81;5014239;28;45384;-76
2022/06/11 06:38:09;;;;;;;;;5.00;3.50;;;;;20.58;63.67;101933.09;5030029;28;45557;-75
2022/06/11 06:40:35;;;;;;;;;3.00;3.00;;;;;20.73;62.79;101932.91;5033992;28;46095;-78
2022/06/11 06:43:03;;;;;;;;;5.75;3.50;;;;;20.85;62.62;101936.59;5034062;28;45405;-79
2022/06/11 06:45:29;;;;;;;;;6.00;5.00;;;;;20.95;62.54;101926.81;5037668;28;45230;-80
2022/06/11 06:47:54;;;;;;;;;4.00;4.00;;;;;20.88;62.00;101905.53;5035915;28;45381;-78
2022/06/11 06:50:19;;;;;;;;;5.00;3.00;;;;;21.11;61.84;101935.63;5034004;28;45686;-76
2022/06/11 06:52:45;;;;;;;;;4.00;4.00;;;;;21.17;61.50;101934.38;5034223;28;45411;-74
2022/06/11 06:55:11;;;;;;;;;3.75;3.75;;;;;21.20;60.96;101931.41;5033495;28;45376;-75
2022/06/11 06:57:36;;;;;;;;;3.00;3.00;;;;;21.26;60.91;101941.91;5030516;28;45506;-74
2022/06/11 07:00:07;;;;;;;;;4.00;4.00;;;;;21.30;60.47;101942.53;5012838;28;48306;-74
2022/06/11 07:02:32;;;;;;;;;6.25;5.75;;;;;21.32;60.45;101937.84;5031182;28;45509;-74
2022/06/11 07:04:59;;;;;;;;;4.25;4.25;;;;;21.32;60.54;101938.72;5031972;28;45521;-74
2022/06/11 07:07:25;;;;;;;;;4.50;3.50;;;;;21.36;60.29;101931.19;5034184;28;45495;-75
2022/06/11 07:09:53;;;;;;;;;4.00;4.00;;;;;21.44;60.27;101943.28;5036372;28;45425;-75
2022/06/11 07:12:19;;;;;;;;;6.75;5.25;;;;;21.49;59.82;101951.16;5036687;28;45386;-74
2022/06/11 07:14:44;;;;;;;;;6.00;5.00;;;;;21.46;59.57;101933.13;5036900;28;45513;-74
2022/06/11 07:17:10;;;;;;;;;5.25;4.25;;;;;21.49;59.69;101935.66;5036390;28;45510;-75
2022/06/11 07:19:43;;;;;;;;;4.25;4.25;;;;;21.51;59.75;101920.06;5035922;28;46088;-75
2022/06/11 07:22:15;;;;;;;;;4.50;4.50;;;;;21.64;59.30;101939.13;5036197;28;45515;-74
2022/06/11 07:24:42;;;;;;;;;3.75;3.75;;;;;21.73;59.14;101941.16;5018239;28;45557;-74
2022/06/11 07:27:13;;;;;;;;;5.00;5.00;;;;;21.77;59.20;101950.03;5036288;28;45448;-74
2022/06/11 07:29:45;;;;;;;;;6.75;5.00;;;;;21.75;59.06;101941.06;5036434;28;46431;-75
2022/06/11 07:32:16;;;;;;;;;5.25;4.50;;;;;21.83;59.23;101942.25;5029086;28;45279;-73
2022/06/11 07:34:43;;;;;;;;;8.50;5.00;;;;;21.88;58.97;101950.06;5015533;28;45442;-74
2022/06/11 07:37:09;;;;;;;;;5.25;5.25;;;;;21.89;58.93;101935.44;5016373;28;45431;-74
2022/06/11 07:39:34;;;;;;;;;5.75;4.50;;;;;21.99;58.82;101942.00;5015925;28;45519;-74
2022/06/11 07:42:00;;;;;;;;;6.00;6.00;;;;;22.08;58.49;101946.78;5016254;28;45289;-74
2022/06/11 07:44:25;;;;;;;;;6.25;5.00;;;;;22.11;58.71;101951.16;5016360;28;45313;-74
2022/06/11 07:46:51;;;;;;;;;5.50;5.00;;;;;22.15;58.66;101948.03;5016444;28;45225;-74
2022/06/11 07:49:16;;;;;;;;;3.50;3.50;;;;;22.17;58.20;101945.22;5016044;28;46308;-71
2022/06/11 07:51:42;;;;;;;;;6.00;4.50;;;;;22.18;58.12;101952.41;5016581;28;45548;-73
2022/06/11 07:54:07;;;;;;;;;5.00;5.00;;;;;22.14;58.34;101939.97;5016644;28;45309;-74
2022/06/11 07:56:32;;;;;;;;;5.25;5.25;;;;;22.15;58.33;101953.50;5016190;28;45507;-74
2022/06/11 07:58:58;;;;;;;;;6.00;4.75;;;;;22.09;57.97;101934.88;5016000;28;46214;-73
2022/06/11 08:01:23;;;;;;;;;4.50;4.50;;;;;22.12;57.89;101947.41;5016542;28;45480;-74
2022/06/11 08:03:49;;;;;;;;;5.75;5.25;;;;;22.03;58.40;101943.50;5016357;28;45484;-74
2022/06/11 08:06:14;;;;;;;;;9.00;7.25;;;;;22.00;58.17;101949.22;5016194;28;45431;-74
2022/06/11 08:08:40;;;;;;;;;6.00;5.00;;;;;22.00;58.17;101945.59;5015844;28;46208;-75
2022/06/11 08:11:06;;;;;;;;;7.75;6.00;;;;;21.97;58.09;101945.78;5022865;28;45379;-72
2022/06/11 08:13:31;;;;;;;;;8.00;5.75;;;;;22.03;57.89;101951.69;5035990;28;45435;-74
2022/06/11 08:16:00;;;;;;;;;6.50;4.75;;;;;22.07;57.65;101953.22;5035929;28;45590;-74
2022/06/11 08:18:27;;;;;;;;;5.00;5.00;;;;;22.13;57.78;101958.22;5016735;28;47641;-73
2022/06/11 08:20:53;;;;;;;;;5.75;4.00;;;;;22.10;57.20;101946.66;5035807;28;45269;-74
2022/06/11 08:23:20;;;;;;;;;6.00;4.50;;;;;22.12;56.61;101952.84;5017902;28;45390;-73
2022/06/11 08:25:46;;;;;;;;;4.00;4.00;;;;;22.16;56.56;101948.91;5036023;28;45679;-73
2022/06/11 08:28:14;;;;;;;;;4.00;4.00;;;;;22.17;56.70;101946.06;5035354;28;46072;-74
2022/06/11 08:30:40;;;;;;;;;4.00;4.00;;;;;22.15;56.70;101938.97;5035444;28;45525;-74
2022/06/11 08:33:06;;;;;;;;;4.00;4.00;;;;;22.17;57.05;101945.22;5020322;28;45254;-73
2022/06/11 08:35:33;;;;;;;;;3.50;2.25;;;;;22.14;56.29;101942.69;5015564;28;45302;-74
2022/06/11 08:37:59;;;;;;;;;3.25;3.25;;;;;22.15;56.84;101953.50;5015403;28;45963;-74
2022/06/11 08:40:35;;;;;;;;;3.00;3.00;;;;;22.16;56.96;101949.78;5015604;28;45361;-74
2022/06/11 08:43:02;;;;;;;;;3.25;3.25;;;;;22.23;56.63;101942.88;4997303;28;45363;-74
2022/06/11 08:45:43;;;;;;;;;5.00;4.00;;;;;22.27;56.51;101954.47;5015410;28;45314;-73
2022/06/11 08:48:22;;;;;;;;;5.75;2.75;;;;;22.25;56.75;101938.19;5033474;28;45224;-74
2022/06/11 08:51:01;;;;;;;;;7.00;4.00;;;;;22.26;56.67;101939.91;5035150;28;45340;-74
2022/06/11 08:53:26;;;;;;;;;3.50;3.50;;;;;22.30;56.86;101936.94;5035862;28;45258;-74
2022/06/11 08:55:51;;;;;;;;;6.00;5.00;;;;;22.31;56.28;101935.94;5035325;28;45399;-74
2022/06/11 08:58:35;;;;;;;;;5.00;5.00;;;;;22.33;56.47;101940.31;5035680;28;45578;-74
2022/06/11 09:01:18;;;;;;;;;4.50;4.50;;;;;22.35;56.39;101942.94;5017088;28;45504;-74
2022/06/11 09:03:57;;;;;;;;;4.25;3.50;;;;;22.25;55.72;101923.63;5016498;28;45497;-72
2022/06/11 09:06:46;;;;;;;;;4.50;4.50;;;;;22.37;55.91;101927.31;5025975;28;45496;-71
2022/06/11 09:09:33;;;;;;;;;4.50;4.50;;;;;22.40;55.68;101929.78;5014942;28;46665;-74
2022/06/11 09:12:35;;;;;;;;;6.00;4.50;;;;;22.38;56.01;101904.44;5014385;28;45503;-73
2022/06/11 09:15:11;;;;;;;;;5.50;4.50;;;;;22.57;55.42;101923.88;5014824;28;45372;-74
2022/06/11 09:18:05;;;;;;;;;4.75;4.00;;;;;22.70;55.18;101932.03;5014813;28;45466;-74
2022/06/11 09:20:45;;;;;;;;;4.75;3.25;;;;;22.79;54.56;101925.88;5014759;28;46105;-74
2022/06/11 09:23:46;;;;;;;;;4.50;4.25;;;;;22.89;55.22;101919.53;5014614;28;45509;-74
2022/06/11 09:26:43;;;;;;;;;2.50;2.50;;;;;22.99;54.58;101920.56;4971890;28;45455;-74
2022/06/11 09:29:21;;;;;;;;;4.50;3.75;;;;;22.95;54.93;101910.00;5023940;28;45399;-75
2022/06/11 09:32:25;;;;;;;;;3.25;3.25;;;;;23.04;54.43;101919.34;5012048;28;47312;-75
2022/06/11 09:35:09;;;;;;;;;4.25;4.25;;;;;23.00;53.92;101910.47;5029798;28;45326;-74
2022/06/11 09:38:06;;;;;;;;;5.00;4.00;;;;;22.99;54.20;101917.81;5034360;28;45313;-75
2022/06/11 09:40:42;;;;;;;;;4.00;4.00;;;;;22.93;53.94;101911.97;5034550;28;45244;-73
2022/06/11 09:43:18;;;;;;;;;6.25;6.25;;;;;22.78;52.75;101919.53;5034299;28;46019;-73
2022/06/11 09:46:02;;;;;;;;;3.75;2.75;;;;;22.65;53.68;101919.56;5034497;28;45291;-72
2022/06/11 09:48:27;;;;;;;;;3.75;3.75;;;;;22.49;54.33;101921.75;5034685;28;45555;-73
2022/06/11 09:51:22;;;;;;;;;3.75;3.75;;;;;22.40;54.71;101927.06;5034636;28;45266;-73
2022/06/11 09:54:21;;;;;;;;;5.25;3.00;;;;;22.41;54.38;101917.88;5031270;28;46205;-73
2022/06/11 09:57:03;;;;;;;;;6.00;4.75;;;;;22.49;55.15;101921.75;5035043;28;45375;-74
2022/06/11 09:59:55;;;;;;;;;3.00;3.00;;;;;22.57;54.91;101916.56;5034300;28;45406;-73
2022/06/11 10:04:56;;;;;;;;;2.00;1.50;;;;;22.75;54.34;101918.88;5034134;28;45584;-74
2022/06/11 10:07:31;;;;;;;;;4.00;4.00;;;;;22.88;53.99;101922.41;5033804;28;45243;-73
2022/06/11 10:09:56;;;;;;;;;4.00;4.00;;;;;22.98;53.38;101913.34;5031160;28;45582;-73
2022/06/11 10:12:30;;;;;;;;;4.00;2.00;;;;;23.07;53.83;101908.13;5032069;28;45460;-73
2022/06/11 10:15:16;;;;;;;;;3.00;3.00;;;;;23.22;53.29;101915.13;5033525;28;45448;-74
2022/06/11 10:17:47;;;;;;;;;2.75;2.75;;;;;23.35;52.87;101919.47;5033528;28;45367;-74
2022/06/11 10:20:42;;;;;;;;;3.75;3.75;;;;;23.42;51.48;101914.38;5033732;28;45269;-74
2022/06/11 10:23:25;;;;;;;;;2.50;2.50;;;;;23.44;52.48;101911.50;5029221;28;45447;-74
2022/06/11 10:25:53;;;;;;;;;3.25;1.75;;;;;23.51;52.03;101910.03;5033359;28;45515;-73
2022/06/11 10:28:32;;;;;;;;;4.00;4.00;;;;;23.55;52.03;101903.34;5033818;28;45457;-75
2022/06/11 10:31:23;;;;;;;;;2.25;2.25;;;;;23.65;51.67;101910.63;5033305;28;45432;-76
2022/06/11 10:34:03;;;;;;;;;2.00;2.00;;;;;23.70;51.83;101902.06;5020899;28;45530;-73
2022/06/11 10:36:38;;;;;;;;;5.25;4.00;;;;;23.74;51.11;101898.94;5033743;28;45507;-74
2022/06/11 10:39:18;;;;;;;;;4.50;4.50;;;;;23.76;51.41;101902.41;5015838;28;45274;-78
2022/06/11 10:41:54;;;;;;;;;2.50;2.50;;;;;23.76;51.30;101898.81;5017313;28;45497;-76
2022/06/11 10:44:37;;;;;;;;;3.75;3.75;;;;;23.83;50.56;101907.38;5037765;28;45371;-76
2022/06/11 10:47:23;;;;;;;;;8.00;6.00;;;;;23.89;50.69;101906.88;5036915;28;46022;-75
2022/06/11 10:50:00;;;;;;;;;3.50;3.50;;;;;23.90;50.79;101909.50;5037209;28;45462;-73
2022/06/11 10:52:47;;;;;;;;;4.00;4.00;;;;;23.87;50.62;101912.47;5037045;28;45445;-72
2022/06/11 10:55:47;;;;;;;;;4.25;4.25;;;;;23.81;50.77;101913.00;5036645;28;45315;-73
2022/06/11 10:58:25;;;;;;;;;4.00;3.00;;;;;23.77;50.92;101904.16;5036535;28;45313;-73
2022/06/11 11:00:54;;;;;;;;;3.25;3.25;;;;;23.74;51.33;101895.31;5036439;28;45271;-72
2022/06/11 11:03:35;;;;;;;;;3.25;2.00;;;;;23.89;50.81;101906.88;5019023;28;45357;-72
2022/06/11 11:06:05;;;;;;;;;3.00;3.00;;;;;23.97;50.38;101907.09;5036509;28;45315;-72
2022/06/11 11:08:33;;;;;;;;;3.75;3.00;;;;;23.98;50.32;101903.38;5036564;28;45804;-72
2022/06/11 11:11:00;;;;;;;;;11.25;8.25;;;;;24.07;50.01;101897.97;5036338;28;45298;-73
2022/06/11 11:13:36;;;;;;;;;2.75;2.75;;;;;24.08;49.04;101907.94;5036694;28;45351;-73
2022/06/11 11:16:12;;;;;;;;;5.50;3.00;;;;;24.04;49.76;101898.25;5036490;28;45310;-73
2022/06/11 11:18:59;;;;;;;;;4.00;2.25;;;;;23.97;49.48;101888.81;5036058;28;45528;-73
2022/06/11 11:21:47;;;;;;;;;3.50;3.00;;;;;24.05;49.72;101888.16;5036460;28;45237;-71
2022/06/11 11:24:19;;;;;;;;;4.00;2.75;;;;;24.19;49.97;101900.69;5018285;28;45379;-71
2022/06/11 11:26:52;;;;;;;;;3.50;3.50;;;;;24.28;49.84;101903.53;5035963;28;45218;-72
2022/06/11 11:29:26;;;;;;;;;4.00;4.00;;;;;24.32;48.58;101879.50;5036442;28;46427;-73
2022/06/11 11:31:57;;;;;;;;;3.50;3.50;;;;;24.44;48.91;101887.53;5031602;28;45410;-73
2022/06/11 11:34:24;;;;;;;;;3.25;2.50;;;;;24.51;48.82;101896.06;5016439;28;45365;-72
2022/06/11 11:36:49;;;;;;;;;2.25;2.25;;;;;24.56;47.37;101885.59;5016213;28;45392;-73
2022/06/11 11:39:21;;;;;;;;;5.00;5.00;;;;;24.55;47.12;101892.09;5016223;28;45936;-72
2022/06/11 11:42:02;;;;;;;;;4.75;3.25;;;;;24.68;47.87;101897.34;5015999;28;45508;-73
2022/06/11 11:44:35;;;;;;;;;3.75;3.75;;;;;24.84;48.04;101895.00;5015989;28;45357;-73
2022/06/11 11:47:03;;;;;;;;;3.00;3.00;;;;;24.97;46.65;101894.84;5015961;28;45326;-74
2022/06/11 11:49:33;;;;;;;;;3.25;2.00;;;;;24.99;45.80;101887.34;5016163;28;45329;-72
2022/06/11 11:52:06;;;;;;;;;4.25;3.00;;;;;25.04;46.78;101879.56;5015824;28;45396;-72
2022/06/11 11:54:33;;;;;;;;;3.50;2.00;;;;;25.13;44.77;101884.25;5014862;28;45506;-72
2022/06/11 11:57:12;;;;;;;;;1.75;1.75;;;;;25.16;45.24;101884.84;5015705;28;45625;-74
2022/06/11 11:59:48;;;;;;;;;2.00;2.00;;;;;25.19;45.29;101872.72;5022844;28;46398;-73
2022/06/11 12:02:19;;;;;;;;;2.00;2.00;;;;;25.27;44.47;101868.25;5035564;28;45514;-72
2022/06/11 12:04:51;;;;;;;;;2.50;2.00;;;;;25.52;43.95;101877.06;5035870;28;45270;-72
2022/06/11 12:07:24;;;;;;;;;4.75;2.75;;;;;25.69;41.80;101887.38;5035198;28;45551;-72
2022/06/11 12:09:53;;;;;;;;;1.00;1.00;;;;;25.72;42.39;101869.75;5035273;28;46145;-72
2022/06/11 12:12:30;;;;;;;;;2.00;2.00;;;;;25.67;42.59;101861.06;5035161;28;45592;-72
2022/06/11 12:15:14;;;;;;;;;1.25;1.25;;;;;25.67;43.34;101858.34;5035427;28;45336;-73
2022/06/11 12:17:46;;;;;;;;;2.00;2.00;;;;;25.85;43.46;101887.72;5035225;28;46533;-72
2022/06/11 12:20:21;;;;;;;;;2.00;2.00;;;;;25.88;43.95;101879.19;5016822;28;47747;-74
2022/06/11 12:22:55;;;;;;;;;2.00;2.00;;;;;25.99;43.35;101880.94;5035292;28;45391;-72
2022/06/11 12:25:30;;;;;;;;;2.25;2.25;;;;;26.06;43.27;101876.59;5014728;28;46721;-72
2022/06/11 12:27:55;;;;;;;;;2.50;2.00;;;;;26.16;43.10;101874.72;5032610;28;45360;-73
2022/06/11 12:30:26;;;;;;;;;2.75;2.00;;;;;26.14;41.43;101881.38;5033975;28;46643;-73
2022/06/11 12:32:52;;;;;;;;;1.50;1.50;;;;;26.17;42.00;101861.88;5022509;28;45487;-72
2022/06/11 12:35:42;;;;;;;;;2.75;2.00;;;;;26.35;42.26;101868.41;5015396;28;45154;-74
2022/06/11 12:38:25;;;;;;;;;3.50;2.50;;;;;26.58;41.73;101872.59;4972783;28;45478;-73
2022/06/11 12:41:21;;;;;;;;;2.75;2.75;;;;;26.72;41.40;101865.75;5035226;28;46296;-73
2022/06/11 12:44:05;;;;;;;;;0.25;0.25;;;;;26.87;41.26;101864.28;5033973;28;45392;-73
2022/06/11 12:46:57;;;;;;;;;2.25;2.25;;;;;26.98;41.97;101861.38;5030407;28;45597;-73
2022/06/11 12:49:47;;;;;;;;;2.50;1.25;;;;;27.03;40.10;101858.19;4997263;28;45427;-72
2022/06/11 12:52:27;;;;;;;;;1.00;1.00;;;;;27.14;40.01;101852.47;5030968;28;45535;-73
2022/06/11 12:55:36;;;;;;;;;2.00;2.00;;;;;27.34;39.95;101859.63;5030866;28;45288;-73
2022/06/11 12:58:23;;;;;;;;;2.75;2.00;;;;;27.40;39.26;101849.88;5031581;28;45471;-73
2022/06/11 13:00:55;;;;;;;;;1.00;1.00;;;;;27.56;39.12;101849.28;5030561;28;45333;-74
2022/06/11 13:03:55;;;;;;;;;2.50;2.50;;;;;27.65;38.96;101848.31;5034733;28;46545;-74
2022/06/11 13:06:53;;;;;;;;;2.00;2.00;;;;;27.62;39.55;101833.00;5017184;28;45432;-74
2022/06/11 13:09:24;;;;;;;;;2.00;2.00;;;;;27.85;38.77;101847.19;4993052;28;46270;-74
2022/06/11 13:12:22;;;;;;;;;2.00;2.00;;;;;28.10;38.47;101843.66;5034904;28;45286;-76
2022/06/11 13:14:50;;;;;;;;;2.75;2.50;;;;;28.13;37.68;101853.50;4970675;28;46037;-75
2022/06/11 13:17:28;;;;;;;;;1.75;1.75;;;;;28.07;37.87;101843.97;5014580;28;45423;-76
2022/06/11 13:19:58;;;;;;;;;3.00;1.00;;;;;28.00;37.79;101842.00;5034744;28;45398;-74
2022/06/11 13:22:27;;;;;;;;;2.00;2.00;;;;;28.15;38.22;101845.97;5034397;28;45298;-74
2022/06/11 13:24:59;;;;;;;;;2.75;2.75;;;;;28.31;35.88;101840.63;5033966;28;45401;-73
2022/06/11 13:27:37;;;;;;;;;1.25;1.25;;;;;28.44;37.54;101841.06;5035028;28;45353;-73
2022/06/11 13:30:14;;;;;;;;;1.00;1.00;;;;;28.33;36.61;101840.47;5034610;28;45407;-75
2022/06/11 13:32:59;;;;;;;;;1.00;1.00;;;;;28.34;37.43;101837.53;5022671;28;45493;-74
2022/06/11 13:35:46;;;;;;;;;2.00;2.00;;;;;28.55;36.58;101840.81;5013665;28;46181;-74
2022/06/11 13:38:38;;;;;;;;;2.00;1.00;;;;;28.74;36.23;101830.59;5030225;28;45297;-74
2022/06/11 13:41:37;;;;;;;;;1.75;1.75;;;;;28.63;35.60;101830.84;5034410;28;45409;-75
2022/06/11 13:44:21;;;;;;;;;2.50;1.75;;;;;28.49;36.41;101837.84;5034190;28;45660;-74
2022/06/11 13:47:01;;;;;;;;;2.00;2.00;;;;;28.74;36.00;101833.38;5034197;28;45242;-76
2022/06/11 13:49:33;;;;;;;;;2.75;2.00;;;;;29.22;35.20;101828.16;5033972;28;45345;-74
2022/06/11 13:52:09;;;;;;;;;1.00;1.00;;;;;29.59;35.40;101830.59;5034386;28;45487;-74
2022/06/11 13:57:48;;;;;;;;;2.00;2.00;;;;;30.01;33.09;101832.44;5033819;28;45824;-74
2022/06/11 14:00:29;;;;;;;;;2.50;2.50;;;;;30.15;34.43;101836.41;5034202;28;45282;-73
2022/06/11 14:03:21;;;;;;;;;2.50;1.00;;;;;30.14;33.53;101830.00;5034016;28;45333;-73
2022/06/11 14:05:50;;;;;;;;;1.25;1.00;;;;;29.60;34.65;101826.75;5033666;28;45377;-75
2022/06/11 14:08:18;;;;;;;;;1.00;1.00;;;;;29.16;34.83;101822.44;5033795;28;45436;-73
2022/06/11 14:10:47;;;;;;;;;1.00;1.00;;;;;28.89;35.16;101821.59;5033585;28;45337;-74
2022/06/11 14:13:21;;;;;;;;;3.00;2.00;;;;;28.77;35.93;101824.78;5033776;28;45589;-74
2022/06/11 14:15:51;;;;;;;;;1.00;1.00;;;;;28.58;36.07;101812.03;5033560;28;45599;-74
2022/06/11 14:18:19;;;;;;;;;1.00;1.00;;;;;28.83;35.30;101819.50;5037200;28;46144;-74
2022/06/11 14:20:50;;;;;;;;;2.25;1.50;;;;;29.05;34.87;101818.03;5037377;28;45425;-74
2022/06/11 14:23:15;;;;;;;;;2.00;1.00;;;;;29.17;35.67;101819.50;5037649;28;45573;-72
2022/06/11 14:25:54;;;;;;;;;2.50;1.75;;;;;28.98;35.21;101804.03;5037086;28;45610;-73
2022/06/11 14:28:19;;;;;;;;;3.50;2.00;;;;;29.41;35.37;101820.66;5037304;28;46408;-74
2022/06/11 14:30:53;;;;;;;;;2.75;2.00;;;;;29.56;35.20;101817.09;5036924;28;45285;-73
2022/06/11 14:33:19;;;;;;;;;2.00;1.00;;;;;29.59;34.93;101811.22;5020407;28;45347;-73
2022/06/11 14:35:48;;;;;;;;;1.00;1.00;;;;;29.56;34.81;101816.22;5017315;28;45285;-74
2022/06/11 14:38:46;;;;;;;;;1.00;1.00;;;;;29.38;35.18;101812.69;5016713;28;46127;-73
2022/06/11 14:41:11;;;;;;;;;2.25;1.75;;;;;29.15;35.77;101809.66;5016988;28;45346;-73
2022/06/11 14:43:52;;;;;;;;;4.50;1.75;;;;;28.89;35.50;101807.78;5006719;28;45476;-72
2022/06/11 14:46:29;;;;;;;;;2.00;2.00;;;;;28.78;35.88;101799.78;5036739;28;45590;-74
2022/06/11 14:49:03;;;;;;;;;2.00;2.00;;;;;28.69;36.53;101803.47;5036563;28;46397;-73
2022/06/11 14:51:35;;;;;;;;;1.00;1.00;;;;;28.76;35.89;101795.41;5020153;28;45351;-74
2022/06/11 14:54:24;;;;;;;;;1.75;1.75;;;;;29.28;35.19;101793.47;5019348;28;45351;-75
2022/06/11 14:57:16;;;;;;;;;1.50;1.50;;;;;29.85;34.25;101791.78;5036543;28;45318;-74
2022/06/11 15:00:00;;;;;;;;;2.00;2.00;;;;;30.54;34.24;101784.06;5036383;28;45471;-73
2022/06/11 15:02:28;;;;;;;;;1.00;1.00;;;;;31.41;33.00;101788.63;5018307;28;45927;-74
2022/06/11 15:05:21;;;;;;;;;3.00;2.00;;;;;32.17;31.30;101787.81;5019010;28;45347;-75
2022/06/11 15:07:47;;;;;;;;;2.50;2.00;;;;;32.55;29.81;101783.13;5036513;28;45512;-74
2022/06/11 15:10:26;;;;;;;;;3.00;1.00;;;;;32.72;30.37;101787.50;5036453;28;45332;-74
2022/06/11 15:13:03;;;;;;;;;3.50;2.25;;;;;33.05;30.49;101796.31;5037034;28;45353;-76
2022/06/11 15:15:47;;;;;;;;;1.00;1.00;;;;;33.15;29.54;101793.25;5037277;28;45317;-77
2022/06/11 15:18:31;;;;;;;;;1.00;1.00;;;;;33.28;29.78;101793.44;5037180;28;45491;-74
2022/06/11 15:21:04;;;;;;;;;3.00;1.50;;;;;33.40;29.01;101784.44;5037083;28;46364;-75
2022/06/11 15:23:41;;;;;;;;;1.00;1.00;;;;;33.70;28.39;101789.91;5036003;28;45352;-76
2022/06/11 15:26:13;;;;;;;;;2.25;2.00;;;;;33.54;28.25;101781.81;5036805;28;45505;-79
2022/06/11 15:29:18;;;;;;;;;2.25;2.25;;;;;33.25;29.11;101786.38;5036205;28;45315;-75
2022/06/11 15:32:20;;;;;;;;;1.00;1.00;;;;;32.85;29.51;101784.03;5031383;28;45504;-76
2022/06/11 15:34:51;;;;;;;;;2.00;2.00;;;;;32.98;28.94;101784.25;5016222;28;45403;-75
2022/06/11 15:37:16;;;;;;;;;1.50;1.25;;;;;33.01;28.58;101790.28;5016514;28;45440;-73
2022/06/11 15:39:56;;;;;;;;;0.50;0.50;;;;;33.04;29.32;101772.38;5016232;28;45355;-73
2022/06/11 15:42:35;;;;;;;;;1.00;1.00;;;;;33.35;28.83;101792.47;5016083;28;45392;-74
2022/06/11 15:45:05;;;;;;;;;1.00;1.00;;;;;33.46;27.47;101796.69;5016148;28;45372;-73
2022/06/11 15:47:33;;;;;;;;;2.00;1.25;;;;;33.19;28.51;101792.66;5016021;28;45414;-74
2022/06/11 15:50:01;;;;;;;;;1.00;1.00;;;;;33.13;29.24;101793.44;5016478;28;45561;-77
2022/06/11 15:52:34;;;;;;;;;2.00;2.00;;;;;33.13;29.35;101787.03;5025540;28;46410;-76
2022/06/11 15:55:12;;;;;;;;;2.00;1.25;;;;;33.15;29.00;101796.91;5027180;28;45323;-74
2022/06/11 15:57:58;;;;;;;;;1.00;1.00;;;;;32.76;29.29;101799.06;5033716;28;46976;-73
2022/06/11 16:00:37;;;;;;;;;0.25;0.25;;;;;32.46;30.21;101799.00;5034096;28;45397;-74
2022/06/11 16:03:05;;;;;;;;;1.50;1.50;;;;;32.45;30.33;101788.09;5034685;28;47007;-73
2022/06/11 16:05:34;;;;;;;;;3.00;2.25;;;;;32.57;30.42;101790.25;5035703;28;45322;-74
2022/06/11 16:08:00;;;;;;;;;1.00;1.00;;;;;32.59;30.91;101785.34;5036226;28;45269;-76
2022/06/11 16:10:30;;;;;;;;;1.00;1.00;;;;;32.45;30.56;101790.88;5035681;28;45314;-75
2022/06/11 16:12:55;;;;;;;;;1.00;1.00;;;;;32.17;30.69;101785.03;5035710;28;45475;-75
2022/06/11 16:15:26;;;;;;;;;6.00;1.00;;;;;31.71;31.18;101778.63;5035809;28;46101;-75
2022/06/11 16:17:51;;;;;;;;;2.50;1.25;;;;;31.37;32.12;101787.25;5036093;28;45303;-74
2022/06/11 16:20:25;;;;;;;;;1.75;1.75;;;;;30.92;32.52;101752.78;5035455;28;45384;-75
2022/06/11 16:22:57;;;;;;;;;1.50;1.50;;;;;30.99;32.21;101788.94;5035790;28;45491;-76
2022/06/11 16:25:32;;;;;;;;;2.75;2.00;;;;;31.02;32.59;101783.06;5035593;28;45608;-75
2022/06/11 16:28:00;;;;;;;;;1.00;1.00;;;;;31.06;32.30;101768.66;5035768;28;45329;-78
2022/06/11 16:30:35;;;;;;;;;1.75;1.75;;;;;31.31;31.23;101787.97;5035265;28;45312;-76